sensor_id;sensor_type;location;lat;lon;timestamp;P1;durP1;ratioP1;P2;durP2;ratioP2
69822;SDS011;57119;52.516;13.508;2023-06-26T00:00:48;15.73;;;10.13;;
69822;SDS011;57119;52.516;13.508;2023-06-26T00:03:13;14.00;;;9.50;;
69822;SDS011;57119;52.516;13.508;2023-06-26T00:05:40;14.83;;;9.97;;
69822;SDS011;57119;52.516;13.508;2023-06-26T00:08:06;14.00;;;9.95;;
69822;SDS011;57119;52.516;13.508;2023-06-26T00:10:32;14.93;;;9.90;;
69822;SDS011;57119;52.516;13.508;2023-06-26T00:12:57;13.65;;;9.20;;
69822;SDS011;57119;52.516;13.508;2023-06-26T00:15:23;15.60;;;9.57;;
69822;SDS011;57119;52.516;13.508;2023-06-26T00:17:49;16.33;;;10.57;;
69822;SDS011;57119;52.516;13.508;2023-06-26T00:20:15;14.07;;;9.70;;
69822;SDS011;57119;52.516;13.508;2023-06-26T00:22:41;13.80;;;9.70;;
69822;SDS011;57119;52.516;13.508;2023-06-26T00:25:10;13.73;;;9.18;;
69822;SDS011;57119;52.516;13.508;2023-06-26T00:27:35;15.63;;;9.77;;
69822;SDS011;57119;52.516;13.508;2023-06-26T00:30:01;14.90;;;10.30;;
69822;SDS011;57119;52.516;13.508;2023-06-26T00:32:27;15.73;;;10.47;;
69822;SDS011;57119;52.516;13.508;2023-06-26T00:34:52;16.63;;;10.07;;
69822;SDS011;57119;52.516;13.508;2023-06-26T00:37:18;14.63;;;10.50;;
69822;SDS011;57119;52.516;13.508;2023-06-26T00:39:43;14.47;;;10.13;;
69822;SDS011;57119;52.516;13.508;2023-06-26T00:42:11;14.75;;;10.48;;
69822;SDS011;57119;52.516;13.508;2023-06-26T00:44:37;15.80;;;10.60;;
69822;SDS011;57119;52.516;13.508;2023-06-26T00:47:02;15.63;;;10.15;;
69822;SDS011;57119;52.516;13.508;2023-06-26T00:49:28;15.47;;;10.67;;
69822;SDS011;57119;52.516;13.508;2023-06-26T00:51:53;14.80;;;10.33;;
69822;SDS011;57119;52.516;13.508;2023-06-26T00:54:19;16.13;;;10.57;;
69822;SDS011;57119;52.516;13.508;2023-06-26T00:56:47;17.80;;;10.77;;
69822;SDS011;57119;52.516;13.508;2023-06-26T00:59:13;17.10;;;11.38;;
69822;SDS011;57119;52.516;13.508;2023-06-26T01:01:39;16.27;;;11.43;;
69822;SDS011;57119;52.516;13.508;2023-06-26T01:04:04;16.07;;;11.77;;
69822;SDS011;57119;52.516;13.508;2023-06-26T01:06:30;17.85;;;10.30;;
69822;SDS011;57119;52.516;13.508;2023-06-26T01:09:00;15.95;;;10.95;;
69822;SDS011;57119;52.516;13.508;2023-06-26T01:11:26;14.50;;;10.60;;
69822;SDS011;57119;52.516;13.508;2023-06-26T01:13:52;16.65;;;11.32;;
69822;SDS011;57119;52.516;13.508;2023-06-26T01:16:20;14.70;;;10.40;;
69822;SDS011;57119;52.516;13.508;2023-06-26T01:18:46;15.07;;;10.00;;
69822;SDS011;57119;52.516;13.508;2023-06-26T01:21:13;15.75;;;11.18;;
69822;SDS011;57119;52.516;13.508;2023-06-26T01:26:25;14.93;;;10.15;;
69822;SDS011;57119;52.516;13.508;2023-06-26T01:28:54;15.63;;;10.93;;
69822;SDS011;57119;52.516;13.508;2023-06-26T01:31:22;14.57;;;10.20;;
69822;SDS011;57119;52.516;13.508;2023-06-26T01:33:50;15.43;;;10.30;;
69822;SDS011;57119;52.516;13.508;2023-06-26T01:36:16;16.15;;;10.70;;
69822;SDS011;57119;52.516;13.508;2023-06-26T01:38:41;17.70;;;11.03;;
69822;SDS011;57119;52.516;13.508;2023-06-26T01:41:07;16.70;;;10.90;;
69822;SDS011;57119;52.516;13.508;2023-06-26T01:46:40;15.93;;;11.90;;
69822;SDS011;57119;52.516;13.508;2023-06-26T01:54:36;17.10;;;11.63;;
69822;SDS011;57119;52.516;13.508;2023-06-26T01:57:04;15.82;;;10.95;;
69822;SDS011;57119;52.516;13.508;2023-06-26T01:59:33;16.13;;;11.27;;
69822;SDS011;57119;52.516;13.508;2023-06-26T02:02:02;16.63;;;11.25;;
69822;SDS011;57119;52.516;13.508;2023-06-26T02:04:32;17.13;;;11.77;;
69822;SDS011;57119;52.516;13.508;2023-06-26T02:06:58;15.25;;;11.05;;
69822;SDS011;57119;52.516;13.508;2023-06-26T02:09:23;16.77;;;11.17;;
69822;SDS011;57119;52.516;13.508;2023-06-26T02:11:48;15.73;;;11.43;;
69822;SDS011;57119;52.516;13.508;2023-06-26T02:14:14;16.57;;;11.27;;
69822;SDS011;57119;52.516;13.508;2023-06-26T02:16:39;16.93;;;10.87;;
69822;SDS011;57119;52.516;13.508;2023-06-26T02:19:04;16.55;;;11.57;;
69822;SDS011;57119;52.516;13.508;2023-06-26T02:21:30;18.60;;;12.53;;
69822;SDS011;57119;52.516;13.508;2023-06-26T02:23:56;15.77;;;11.40;;
69822;SDS011;57119;52.516;13.508;2023-06-26T02:26:21;18.30;;;12.30;;
69822;SDS011;57119;52.516;13.508;2023-06-26T02:28:47;17.70;;;11.77;;
69822;SDS011;57119;52.516;13.508;2023-06-26T02:31:13;19.52;;;12.30;;
69822;SDS011;57119;52.516;13.508;2023-06-26T02:33:38;17.27;;;11.53;;
69822;SDS011;57119;52.516;13.508;2023-06-26T02:36:04;17.75;;;10.98;;
69822;SDS011;57119;52.516;13.508;2023-06-26T02:38:29;18.93;;;11.83;;
69822;SDS011;57119;52.516;13.508;2023-06-26T02:40:55;16.67;;;11.67;;
69822;SDS011;57119;52.516;13.508;2023-06-26T02:43:20;17.25;;;12.38;;
69822;SDS011;57119;52.516;13.508;2023-06-26T02:45:46;17.43;;;12.93;;
69822;SDS011;57119;52.516;13.508;2023-06-26T02:48:11;17.83;;;12.60;;
69822;SDS011;57119;52.516;13.508;2023-06-26T02:50:36;18.87;;;13.10;;
69822;SDS011;57119;52.516;13.508;2023-06-26T02:53:02;18.25;;;13.05;;
69822;SDS011;57119;52.516;13.508;2023-06-26T02:55:28;19.73;;;12.87;;
69822;SDS011;57119;52.516;13.508;2023-06-26T02:57:53;19.73;;;13.17;;
69822;SDS011;57119;52.516;13.508;2023-06-26T03:00:18;20.93;;;14.73;;
69822;SDS011;57119;52.516;13.508;2023-06-26T03:02:44;19.52;;;13.43;;
69822;SDS011;57119;52.516;13.508;2023-06-26T03:05:09;20.67;;;14.10;;
69822;SDS011;57119;52.516;13.508;2023-06-26T03:07:35;19.30;;;13.13;;
69822;SDS011;57119;52.516;13.508;2023-06-26T03:10:00;20.00;;;13.73;;
69822;SDS011;57119;52.516;13.508;2023-06-26T03:12:26;18.83;;;14.30;;
69822;SDS011;57119;52.516;13.508;2023-06-26T03:14:51;21.60;;;14.73;;
69822;SDS011;57119;52.516;13.508;2023-06-26T03:17:17;19.00;;;13.73;;
69822;SDS011;57119;52.516;13.508;2023-06-26T03:19:42;21.00;;;14.27;;
69822;SDS011;57119;52.516;13.508;2023-06-26T03:22:08;20.90;;;15.17;;
69822;SDS011;57119;52.516;13.508;2023-06-26T03:24:33;20.17;;;15.07;;
69822;SDS011;57119;52.516;13.508;2023-06-26T03:26:59;20.33;;;14.75;;
69822;SDS011;57119;52.516;13.508;2023-06-26T03:29:24;21.30;;;15.73;;
69822;SDS011;57119;52.516;13.508;2023-06-26T03:31:50;24.38;;;16.60;;
69822;SDS011;57119;52.516;13.508;2023-06-26T03:34:16;20.80;;;16.00;;
69822;SDS011;57119;52.516;13.508;2023-06-26T03:36:41;22.13;;;14.80;;
69822;SDS011;57119;52.516;13.508;2023-06-26T03:39:07;23.55;;;15.93;;
69822;SDS011;57119;52.516;13.508;2023-06-26T03:41:32;19.47;;;15.07;;
69822;SDS011;57119;52.516;13.508;2023-06-26T03:43:57;22.07;;;14.50;;
69822;SDS011;57119;52.516;13.508;2023-06-26T03:46:25;24.65;;;15.35;;
69822;SDS011;57119;52.516;13.508;2023-06-26T03:48:51;19.80;;;14.80;;
69822;SDS011;57119;52.516;13.508;2023-06-26T03:51:17;20.00;;;14.05;;
69822;SDS011;57119;52.516;13.508;2023-06-26T03:53:43;24.33;;;15.45;;
69822;SDS011;57119;52.516;13.508;2023-06-26T03:56:08;25.07;;;16.23;;
69822;SDS011;57119;52.516;13.508;2023-06-26T03:58:34;21.63;;;15.10;;
69822;SDS011;57119;52.516;13.508;2023-06-26T04:01:00;22.20;;;15.50;;
69822;SDS011;57119;52.516;13.508;2023-06-26T04:03:26;24.40;;;15.53;;
69822;SDS011;57119;52.516;13.508;2023-06-26T04:05:51;22.02;;;15.27;;
69822;SDS011;57119;52.516;13.508;2023-06-26T04:08:17;18.27;;;14.63;;
69822;SDS011;57119;52.516;13.508;2023-06-26T04:10:42;18.93;;;13.83;;
69822;SDS011;57119;52.516;13.508;2023-06-26T04:13:10;20.13;;;14.80;;
69822;SDS011;57119;52.516;13.508;2023-06-26T04:15:35;20.47;;;15.00;;
69822;SDS011;57119;52.516;13.508;2023-06-26T04:18:04;20.75;;;14.27;;
69822;SDS011;57119;52.516;13.508;2023-06-26T04:20:29;20.17;;;14.03;;
69822;SDS011;57119;52.516;13.508;2023-06-26T04:22:55;20.27;;;14.50;;
69822;SDS011;57119;52.516;13.508;2023-06-26T04:25:21;18.43;;;14.27;;
69822;SDS011;57119;52.516;13.508;2023-06-26T04:27:46;18.65;;;13.40;;
69822;SDS011;57119;52.516;13.508;2023-06-26T04:30:12;18.83;;;14.93;;
69822;SDS011;57119;52.516;13.508;2023-06-26T04:32:38;18.73;;;13.98;;
69822;SDS011;57119;52.516;13.508;2023-06-26T04:35:03;20.23;;;15.10;;
69822;SDS011;57119;52.516;13.508;2023-06-26T04:37:28;17.87;;;14.20;;
69822;SDS011;57119;52.516;13.508;2023-06-26T04:39:54;23.17;;;13.73;;
69822;SDS011;57119;52.516;13.508;2023-06-26T04:42:19;19.67;;;14.77;;
69822;SDS011;57119;52.516;13.508;2023-06-26T04:44:46;17.60;;;13.88;;
69822;SDS011;57119;52.516;13.508;2023-06-26T04:47:12;17.90;;;12.50;;
69822;SDS011;57119;52.516;13.508;2023-06-26T04:49:40;16.00;;;12.73;;
69822;SDS011;57119;52.516;13.508;2023-06-26T04:52:08;18.23;;;13.57;;
69822;SDS011;57119;52.516;13.508;2023-06-26T04:54:33;19.90;;;14.00;;
69822;SDS011;57119;52.516;13.508;2023-06-26T04:56:59;15.73;;;12.53;;
69822;SDS011;57119;52.516;13.508;2023-06-26T04:59:25;17.23;;;12.68;;
69822;SDS011;57119;52.516;13.508;2023-06-26T05:01:50;17.77;;;13.23;;
69822;SDS011;57119;52.516;13.508;2023-06-26T05:04:22;17.08;;;13.15;;
69822;SDS011;57119;52.516;13.508;2023-06-26T05:12:33;17.92;;;12.73;;
69822;SDS011;57119;52.516;13.508;2023-06-26T05:17:37;14.90;;;12.20;;
69822;SDS011;57119;52.516;13.508;2023-06-26T05:20:03;24.98;;;12.65;;
69822;SDS011;57119;52.516;13.508;2023-06-26T05:22:41;17.73;;;12.97;;
69822;SDS011;57119;52.516;13.508;2023-06-26T05:25:20;16.80;;;12.48;;
69822;SDS011;57119;52.516;13.508;2023-06-26T05:27:58;18.02;;;13.00;;
69822;SDS011;57119;52.516;13.508;2023-06-26T05:30:27;16.60;;;12.73;;
69822;SDS011;57119;52.516;13.508;2023-06-26T05:32:53;17.88;;;12.10;;
69822;SDS011;57119;52.516;13.508;2023-06-26T05:35:22;18.70;;;12.33;;
69822;SDS011;57119;52.516;13.508;2023-06-26T05:37:51;15.30;;;11.98;;
69822;SDS011;57119;52.516;13.508;2023-06-26T05:40:17;17.08;;;12.95;;
69822;SDS011;57119;52.516;13.508;2023-06-26T05:42:56;17.40;;;11.93;;
69822;SDS011;57119;52.516;13.508;2023-06-26T05:45:25;16.50;;;12.60;;
69822;SDS011;57119;52.516;13.508;2023-06-26T05:47:51;16.63;;;12.67;;
69822;SDS011;57119;52.516;13.508;2023-06-26T05:50:20;15.55;;;12.25;;
69822;SDS011;57119;52.516;13.508;2023-06-26T05:52:45;17.25;;;12.93;;
69822;SDS011;57119;52.516;13.508;2023-06-26T05:55:11;16.05;;;12.20;;
69822;SDS011;57119;52.516;13.508;2023-06-26T05:57:38;17.20;;;11.57;;
69822;SDS011;57119;52.516;13.508;2023-06-26T06:00:06;16.58;;;12.18;;
69822;SDS011;57119;52.516;13.508;2023-06-26T06:02:36;15.20;;;12.20;;
69822;SDS011;57119;52.516;13.508;2023-06-26T06:05:02;15.45;;;12.15;;
69822;SDS011;57119;52.516;13.508;2023-06-26T06:07:28;14.10;;;10.98;;
69822;SDS011;57119;52.516;13.508;2023-06-26T06:09:57;14.97;;;10.70;;
69822;SDS011;57119;52.516;13.508;2023-06-26T06:18:15;12.32;;;9.57;;
69822;SDS011;57119;52.516;13.508;2023-06-26T06:20:50;15.85;;;10.30;;
69822;SDS011;57119;52.516;13.508;2023-06-26T06:23:20;14.60;;;10.00;;
69822;SDS011;57119;52.516;13.508;2023-06-26T06:26:09;14.30;;;9.63;;
69822;SDS011;57119;52.516;13.508;2023-06-26T06:28:39;14.20;;;9.63;;
69822;SDS011;57119;52.516;13.508;2023-06-26T06:31:11;12.48;;;9.07;;
69822;SDS011;57119;52.516;13.508;2023-06-26T06:33:39;13.15;;;9.63;;
69822;SDS011;57119;52.516;13.508;2023-06-26T06:36:05;15.73;;;9.73;;
69822;SDS011;57119;52.516;13.508;2023-06-26T06:38:42;15.88;;;9.35;;
69822;SDS011;57119;52.516;13.508;2023-06-26T06:41:09;14.37;;;9.10;;
69822;SDS011;57119;52.516;13.508;2023-06-26T06:43:48;13.82;;;9.52;;
69822;SDS011;57119;52.516;13.508;2023-06-26T06:46:14;12.98;;;8.80;;
69822;SDS011;57119;52.516;13.508;2023-06-26T06:48:39;13.27;;;8.70;;
69822;SDS011;57119;52.516;13.508;2023-06-26T06:51:04;12.80;;;9.20;;
69822;SDS011;57119;52.516;13.508;2023-06-26T06:53:31;12.80;;;9.10;;
69822;SDS011;57119;52.516;13.508;2023-06-26T06:55:59;11.80;;;8.30;;
69822;SDS011;57119;52.516;13.508;2023-06-26T06:58:25;14.65;;;9.27;;
69822;SDS011;57119;52.516;13.508;2023-06-26T07:01:00;13.77;;;8.93;;
69822;SDS011;57119;52.516;13.508;2023-06-26T07:03:38;12.02;;;8.65;;
69822;SDS011;57119;52.516;13.508;2023-06-26T07:06:04;12.70;;;8.80;;
69822;SDS011;57119;52.516;13.508;2023-06-26T07:08:32;14.73;;;9.10;;
69822;SDS011;57119;52.516;13.508;2023-06-26T07:11:00;15.18;;;9.85;;
69822;SDS011;57119;52.516;13.508;2023-06-26T07:13:25;13.98;;;9.00;;
69822;SDS011;57119;52.516;13.508;2023-06-26T07:15:51;11.90;;;9.40;;
69822;SDS011;57119;52.516;13.508;2023-06-26T07:18:19;13.93;;;9.30;;
69822;SDS011;57119;52.516;13.508;2023-06-26T07:21:05;17.00;;;8.85;;
69822;SDS011;57119;52.516;13.508;2023-06-26T07:23:44;11.95;;;7.90;;
69822;SDS011;57119;52.516;13.508;2023-06-26T07:26:09;12.00;;;8.63;;
69822;SDS011;57119;52.516;13.508;2023-06-26T07:28:35;11.47;;;8.30;;
69822;SDS011;57119;52.516;13.508;2023-06-26T07:31:00;12.33;;;8.77;;
69822;SDS011;57119;52.516;13.508;2023-06-26T07:33:25;12.45;;;7.70;;
69822;SDS011;57119;52.516;13.508;2023-06-26T07:35:51;10.37;;;7.83;;
69822;SDS011;57119;52.516;13.508;2023-06-26T07:38:16;12.53;;;8.07;;
69822;SDS011;57119;52.516;13.508;2023-06-26T07:40:44;12.23;;;6.50;;
69822;SDS011;57119;52.516;13.508;2023-06-26T07:43:10;10.37;;;7.13;;
69822;SDS011;57119;52.516;13.508;2023-06-26T07:45:35;10.75;;;6.88;;
69822;SDS011;57119;52.516;13.508;2023-06-26T07:48:00;10.23;;;6.77;;
69822;SDS011;57119;52.516;13.508;2023-06-26T07:50:26;11.00;;;6.83;;
69822;SDS011;57119;52.516;13.508;2023-06-26T07:52:51;10.57;;;7.03;;
69822;SDS011;57119;52.516;13.508;2023-06-26T07:55:18;9.10;;;5.97;;
69822;SDS011;57119;52.516;13.508;2023-06-26T07:57:43;9.23;;;6.00;;
69822;SDS011;57119;52.516;13.508;2023-06-26T08:00:10;8.83;;;5.50;;
69822;SDS011;57119;52.516;13.508;2023-06-26T08:02:36;9.50;;;6.00;;
69822;SDS011;57119;52.516;13.508;2023-06-26T08:05:05;8.90;;;6.03;;
69822;SDS011;57119;52.516;13.508;2023-06-26T08:07:31;9.23;;;6.10;;
69822;SDS011;57119;52.516;13.508;2023-06-26T08:09:56;9.73;;;6.18;;
69822;SDS011;57119;52.516;13.508;2023-06-26T08:12:24;8.90;;;6.00;;
69822;SDS011;57119;52.516;13.508;2023-06-26T08:14:49;9.20;;;5.80;;
69822;SDS011;57119;52.516;13.508;2023-06-26T08:17:15;9.60;;;6.30;;
69822;SDS011;57119;52.516;13.508;2023-06-26T08:19:40;8.38;;;5.97;;
69822;SDS011;57119;52.516;13.508;2023-06-26T08:22:09;9.03;;;6.33;;
69822;SDS011;57119;52.516;13.508;2023-06-26T08:24:34;8.40;;;5.57;;
69822;SDS011;57119;52.516;13.508;2023-06-26T08:27:02;10.17;;;6.00;;
69822;SDS011;57119;52.516;13.508;2023-06-26T08:29:28;9.50;;;5.78;;
69822;SDS011;57119;52.516;13.508;2023-06-26T08:31:54;8.68;;;5.80;;
69822;SDS011;57119;52.516;13.508;2023-06-26T08:34:20;9.77;;;6.37;;
69822;SDS011;57119;52.516;13.508;2023-06-26T08:36:45;9.17;;;5.83;;
69822;SDS011;57119;52.516;13.508;2023-06-26T08:39:11;8.37;;;5.40;;
69822;SDS011;57119;52.516;13.508;2023-06-26T08:41:36;10.77;;;7.05;;
69822;SDS011;57119;52.516;13.508;2023-06-26T08:44:02;9.57;;;6.20;;
69822;SDS011;57119;52.516;13.508;2023-06-26T08:46:29;9.93;;;6.15;;
69822;SDS011;57119;52.516;13.508;2023-06-26T08:48:56;9.65;;;6.15;;
69822;SDS011;57119;52.516;13.508;2023-06-26T08:51:24;10.65;;;6.13;;
69822;SDS011;57119;52.516;13.508;2023-06-26T08:53:59;9.67;;;5.37;;
69822;SDS011;57119;52.516;13.508;2023-06-26T08:56:36;7.70;;;5.28;;
69822;SDS011;57119;52.516;13.508;2023-06-26T08:59:05;9.07;;;5.43;;
69822;SDS011;57119;52.516;13.508;2023-06-26T09:01:32;8.57;;;6.03;;
69822;SDS011;57119;52.516;13.508;2023-06-26T09:03:58;8.15;;;5.90;;
69822;SDS011;57119;52.516;13.508;2023-06-26T09:06:23;9.07;;;5.40;;
69822;SDS011;57119;52.516;13.508;2023-06-26T09:08:50;8.65;;;5.47;;
69822;SDS011;57119;52.516;13.508;2023-06-26T09:11:18;8.48;;;5.60;;
69822;SDS011;57119;52.516;13.508;2023-06-26T09:13:44;9.10;;;5.87;;
69822;SDS011;57119;52.516;13.508;2023-06-26T09:16:09;8.13;;;5.90;;
69822;SDS011;57119;52.516;13.508;2023-06-26T09:18:35;7.23;;;5.00;;
69822;SDS011;57119;52.516;13.508;2023-06-26T09:21:06;8.70;;;5.50;;
69822;SDS011;57119;52.516;13.508;2023-06-26T09:23:33;7.10;;;4.78;;
69822;SDS011;57119;52.516;13.508;2023-06-26T09:25:59;6.93;;;4.90;;
69822;SDS011;57119;52.516;13.508;2023-06-26T09:28:28;8.90;;;5.03;;
69822;SDS011;57119;52.516;13.508;2023-06-26T09:30:54;8.43;;;4.55;;
69822;SDS011;57119;52.516;13.508;2023-06-26T09:33:36;9.02;;;6.30;;
69822;SDS011;57119;52.516;13.508;2023-06-26T09:36:18;7.00;;;4.88;;
69822;SDS011;57119;52.516;13.508;2023-06-26T09:38:59;8.38;;;5.30;;
69822;SDS011;57119;52.516;13.508;2023-06-26T09:41:36;7.87;;;4.60;;
69822;SDS011;57119;52.516;13.508;2023-06-26T09:44:03;8.03;;;5.50;;
69822;SDS011;57119;52.516;13.508;2023-06-26T09:46:48;9.23;;;5.53;;
69822;SDS011;57119;52.516;13.508;2023-06-26T09:49:25;11.27;;;5.95;;
69822;SDS011;57119;52.516;13.508;2023-06-26T09:51:53;8.10;;;6.28;;
69822;SDS011;57119;52.516;13.508;2023-06-26T09:54:27;8.27;;;5.75;;
69822;SDS011;57119;52.516;13.508;2023-06-26T09:56:57;8.10;;;5.43;;
69822;SDS011;57119;52.516;13.508;2023-06-26T09:59:32;7.47;;;5.33;;
69822;SDS011;57119;52.516;13.508;2023-06-26T10:02:01;7.90;;;5.32;;
69822;SDS011;57119;52.516;13.508;2023-06-26T10:04:29;7.50;;;5.40;;
69822;SDS011;57119;52.516;13.508;2023-06-26T10:06:55;8.25;;;4.93;;
69822;SDS011;57119;52.516;13.508;2023-06-26T10:09:23;6.93;;;5.40;;
69822;SDS011;57119;52.516;13.508;2023-06-26T10:12:02;7.70;;;5.13;;
69822;SDS011;57119;52.516;13.508;2023-06-26T10:14:50;8.25;;;5.35;;
69822;SDS011;57119;52.516;13.508;2023-06-26T10:17:28;7.60;;;5.00;;
69822;SDS011;57119;52.516;13.508;2023-06-26T10:20:00;7.53;;;5.40;;
69822;SDS011;57119;52.516;13.508;2023-06-26T10:22:29;7.55;;;5.85;;
69822;SDS011;57119;52.516;13.508;2023-06-26T10:25:09;8.00;;;5.70;;
69822;SDS011;57119;52.516;13.508;2023-06-26T10:27:44;7.10;;;5.20;;
69822;SDS011;57119;52.516;13.508;2023-06-26T10:30:26;8.55;;;5.93;;
69822;SDS011;57119;52.516;13.508;2023-06-26T10:33:03;8.05;;;5.68;;
69822;SDS011;57119;52.516;13.508;2023-06-26T10:35:40;7.75;;;5.13;;
69822;SDS011;57119;52.516;13.508;2023-06-26T10:38:22;7.73;;;4.80;;
69822;SDS011;57119;52.516;13.508;2023-06-26T10:41:39;7.30;;;5.40;;
69822;SDS011;57119;52.516;13.508;2023-06-26T10:44:16;7.47;;;5.18;;
69822;SDS011;57119;52.516;13.508;2023-06-26T10:46:54;8.63;;;5.65;;
69822;SDS011;57119;52.516;13.508;2023-06-26T10:49:34;8.43;;;5.82;;
69822;SDS011;57119;52.516;13.508;2023-06-26T10:52:07;8.55;;;5.75;;
69822;SDS011;57119;52.516;13.508;2023-06-26T10:54:36;8.02;;;5.35;;
69822;SDS011;57119;52.516;13.508;2023-06-26T10:57:02;7.53;;;5.50;;
69822;SDS011;57119;52.516;13.508;2023-06-26T10:59:32;8.93;;;6.03;;
69822;SDS011;57119;52.516;13.508;2023-06-26T11:02:05;8.63;;;5.28;;
69822;SDS011;57119;52.516;13.508;2023-06-26T11:04:43;9.18;;;6.43;;
69822;SDS011;57119;52.516;13.508;2023-06-26T11:09:54;6.90;;;5.15;;
69822;SDS011;57119;52.516;13.508;2023-06-26T11:12:44;8.73;;;5.77;;
69822;SDS011;57119;52.516;13.508;2023-06-26T11:15:14;8.10;;;5.38;;
69822;SDS011;57119;52.516;13.508;2023-06-26T11:17:48;7.45;;;5.20;;
69822;SDS011;57119;52.516;13.508;2023-06-26T11:20:15;8.27;;;6.05;;
69822;SDS011;57119;52.516;13.508;2023-06-26T11:25:15;7.73;;;5.53;;
69822;SDS011;57119;52.516;13.508;2023-06-26T11:27:42;7.23;;;5.37;;
69822;SDS011;57119;52.516;13.508;2023-06-26T11:30:21;7.05;;;5.05;;
69822;SDS011;57119;52.516;13.508;2023-06-26T11:32:48;7.45;;;5.65;;
69822;SDS011;57119;52.516;13.508;2023-06-26T11:35:23;8.07;;;5.37;;
69822;SDS011;57119;52.516;13.508;2023-06-26T11:37:55;8.97;;;6.17;;
69822;SDS011;57119;52.516;13.508;2023-06-26T11:40:29;8.10;;;5.90;;
69822;SDS011;57119;52.516;13.508;2023-06-26T11:42:59;10.48;;;6.55;;
69822;SDS011;57119;52.516;13.508;2023-06-26T11:45:29;7.05;;;5.20;;
69822;SDS011;57119;52.516;13.508;2023-06-26T11:47:56;9.50;;;5.95;;
69822;SDS011;57119;52.516;13.508;2023-06-26T11:50:23;8.37;;;6.20;;
69822;SDS011;57119;52.516;13.508;2023-06-26T11:52:55;12.23;;;6.30;;
69822;SDS011;57119;52.516;13.508;2023-06-26T11:55:24;8.05;;;7.00;;
69822;SDS011;57119;52.516;13.508;2023-06-26T11:57:54;8.10;;;6.63;;
69822;SDS011;57119;52.516;13.508;2023-06-26T12:00:21;8.38;;;6.50;;
69822;SDS011;57119;52.516;13.508;2023-06-26T12:02:47;7.73;;;6.43;;
69822;SDS011;57119;52.516;13.508;2023-06-26T12:05:13;8.93;;;6.10;;
69822;SDS011;57119;52.516;13.508;2023-06-26T12:07:39;7.53;;;5.75;;
69822;SDS011;57119;52.516;13.508;2023-06-26T12:10:09;7.88;;;5.97;;
69822;SDS011;57119;52.516;13.508;2023-06-26T12:12:36;8.07;;;5.97;;
69822;SDS011;57119;52.516;13.508;2023-06-26T12:15:02;8.50;;;6.50;;
69822;SDS011;57119;52.516;13.508;2023-06-26T12:17:28;8.85;;;6.50;;
69822;SDS011;57119;52.516;13.508;2023-06-26T12:19:53;8.93;;;5.90;;
69822;SDS011;57119;52.516;13.508;2023-06-26T12:22:19;8.25;;;5.30;;
69822;SDS011;57119;52.516;13.508;2023-06-26T12:24:45;7.70;;;6.63;;
69822;SDS011;57119;52.516;13.508;2023-06-26T12:27:12;7.85;;;6.00;;
69822;SDS011;57119;52.516;13.508;2023-06-26T12:29:39;7.35;;;5.95;;
69822;SDS011;57119;52.516;13.508;2023-06-26T12:32:09;7.37;;;5.40;;
69822;SDS011;57119;52.516;13.508;2023-06-26T12:34:36;7.53;;;5.40;;
69822;SDS011;57119;52.516;13.508;2023-06-26T12:37:04;8.50;;;6.65;;
69822;SDS011;57119;52.516;13.508;2023-06-26T12:39:44;7.15;;;5.40;;
69822;SDS011;57119;52.516;13.508;2023-06-26T12:42:13;7.57;;;5.93;;
69822;SDS011;57119;52.516;13.508;2023-06-26T12:44:40;7.80;;;6.47;;
69822;SDS011;57119;52.516;13.508;2023-06-26T12:47:05;8.70;;;7.00;;
69822;SDS011;57119;52.516;13.508;2023-06-26T12:49:35;8.30;;;6.90;;
69822;SDS011;57119;52.516;13.508;2023-06-26T12:52:01;8.07;;;5.87;;
69822;SDS011;57119;52.516;13.508;2023-06-26T12:54:28;8.32;;;6.68;;
69822;SDS011;57119;52.516;13.508;2023-06-26T12:56:54;8.27;;;6.18;;
69822;SDS011;57119;52.516;13.508;2023-06-26T12:59:20;7.88;;;6.07;;
69822;SDS011;57119;52.516;13.508;2023-06-26T13:01:46;9.30;;;6.70;;
69822;SDS011;57119;52.516;13.508;2023-06-26T13:04:12;7.70;;;5.57;;
69822;SDS011;57119;52.516;13.508;2023-06-26T13:06:37;8.23;;;5.37;;
69822;SDS011;57119;52.516;13.508;2023-06-26T13:09:02;7.88;;;5.70;;
69822;SDS011;57119;52.516;13.508;2023-06-26T13:11:31;7.97;;;6.17;;
69822;SDS011;57119;52.516;13.508;2023-06-26T13:13:58;8.05;;;5.40;;
69822;SDS011;57119;52.516;13.508;2023-06-26T13:16:24;10.13;;;5.70;;
69822;SDS011;57119;52.516;13.508;2023-06-26T13:18:49;8.00;;;5.55;;
69822;SDS011;57119;52.516;13.508;2023-06-26T13:21:15;8.33;;;5.17;;
69822;SDS011;57119;52.516;13.508;2023-06-26T13:23:42;8.00;;;5.60;;
69822;SDS011;57119;52.516;13.508;2023-06-26T13:26:08;8.87;;;5.70;;
69822;SDS011;57119;52.516;13.508;2023-06-26T13:28:35;8.77;;;5.88;;
69822;SDS011;57119;52.516;13.508;2023-06-26T13:31:01;9.07;;;5.72;;
69822;SDS011;57119;52.516;13.508;2023-06-26T13:33:27;9.43;;;5.47;;
69822;SDS011;57119;52.516;13.508;2023-06-26T13:35:53;8.77;;;5.93;;
69822;SDS011;57119;52.516;13.508;2023-06-26T13:38:21;9.13;;;5.70;;
69822;SDS011;57119;52.516;13.508;2023-06-26T13:40:51;9.02;;;5.72;;
69822;SDS011;57119;52.516;13.508;2023-06-26T13:43:17;8.48;;;4.95;;
69822;SDS011;57119;52.516;13.508;2023-06-26T13:45:42;10.13;;;5.33;;
69822;SDS011;57119;52.516;13.508;2023-06-26T13:48:08;10.33;;;5.67;;
69822;SDS011;57119;52.516;13.508;2023-06-26T13:50:33;9.50;;;6.20;;
69822;SDS011;57119;52.516;13.508;2023-06-26T13:52:59;9.15;;;5.63;;
69822;SDS011;57119;52.516;13.508;2023-06-26T13:55:24;8.23;;;5.10;;
69822;SDS011;57119;52.516;13.508;2023-06-26T13:57:49;10.47;;;6.53;;
69822;SDS011;57119;52.516;13.508;2023-06-26T14:00:15;9.70;;;6.00;;
69822;SDS011;57119;52.516;13.508;2023-06-26T14:02:46;11.18;;;6.22;;
69822;SDS011;57119;52.516;13.508;2023-06-26T14:05:12;9.77;;;6.00;;
69822;SDS011;57119;52.516;13.508;2023-06-26T14:07:37;9.65;;;6.72;;
69822;SDS011;57119;52.516;13.508;2023-06-26T14:10:03;11.10;;;6.10;;
69822;SDS011;57119;52.516;13.508;2023-06-26T14:12:30;9.45;;;6.70;;
69822;SDS011;57119;52.516;13.508;2023-06-26T14:14:57;8.98;;;5.85;;
69822;SDS011;57119;52.516;13.508;2023-06-26T14:17:22;8.02;;;5.43;;
69822;SDS011;57119;52.516;13.508;2023-06-26T14:19:51;8.70;;;5.73;;
69822;SDS011;57119;52.516;13.508;2023-06-26T14:22:17;9.25;;;5.70;;
69822;SDS011;57119;52.516;13.508;2023-06-26T14:24:42;10.02;;;5.95;;
69822;SDS011;57119;52.516;13.508;2023-06-26T14:27:08;10.00;;;5.53;;
69822;SDS011;57119;52.516;13.508;2023-06-26T14:29:33;11.73;;;5.83;;
69822;SDS011;57119;52.516;13.508;2023-06-26T14:31:59;13.50;;;5.38;;
69822;SDS011;57119;52.516;13.508;2023-06-26T14:34:24;12.80;;;4.03;;
69822;SDS011;57119;52.516;13.508;2023-06-26T14:36:49;13.47;;;4.40;;
69822;SDS011;57119;52.516;13.508;2023-06-26T14:39:15;18.87;;;5.77;;
69822;SDS011;57119;52.516;13.508;2023-06-26T14:41:41;15.73;;;6.90;;
69822;SDS011;57119;52.516;13.508;2023-06-26T14:44:07;16.38;;;7.70;;
69822;SDS011;57119;52.516;13.508;2023-06-26T14:46:34;16.10;;;8.85;;
69822;SDS011;57119;52.516;13.508;2023-06-26T14:49:00;14.33;;;7.67;;
69822;SDS011;57119;52.516;13.508;2023-06-26T14:51:25;15.93;;;7.50;;
69822;SDS011;57119;52.516;13.508;2023-06-26T14:53:51;13.63;;;8.17;;
69822;SDS011;57119;52.516;13.508;2023-06-26T14:56:16;13.57;;;7.77;;